Time;durP1;ratioP1;P1;durP2;ratioP2;P2;SDS_P1;SDS_P2;PMS_P1;PMS_P2;Temp;Humidity;BMP_temperature;BMP_pressure;BME280_temperature;BME280_humidity;BME280_pressure;Samples;Min_cycle;Max_cycle;Signal;HPM_P1;HPM_P2
2021/06/02 00:01:55;;;;;;;30.70;10.73;;;;;;;;;;782451;176;936786;-73
2021/06/02 00:04:21;;;;;;;16.30;11.37;;;;;;;;;;781687;178;919953;-73
2021/06/02 00:06:47;;;;;;;13.50;10.57;;;;;;;;;;783748;178;919240;-72
2021/06/02 00:09:13;;;;;;;10.53;9.40;;;;;;;;;;789005;176;918098;-73
2021/06/02 00:11:39;;;;;;;13.87;11.97;;;;;;;;;;781794;179;919374;-73
2021/06/02 00:14:04;;;;;;;15.00;10.87;;;;;;;;;;782128;178;919272;-74
2021/06/02 00:16:30;;;;;;;22.03;11.37;;;;;;;;;;786785;177;919256;-72
2021/06/02 00:18:56;;;;;;;13.93;12.00;;;;;;;;;;781586;177;919265;-73
2021/06/02 00:21:22;;;;;;;18.70;11.43;;;;;;;;;;782505;177;919799;-73
2021/06/02 00:23:48;;;;;;;15.10;10.40;;;;;;;;;;786205;177;918885;-74
2021/06/02 00:26:14;;;;;;;13.23;10.60;;;;;;;;;;782211;177;1020996;-73
2021/06/02 00:28:40;;;;;;;13.30;10.00;;;;;;;;;;781318;177;919326;-74
2021/06/02 00:31:05;;;;;;;13.67;10.03;;;;;;;;;;789877;176;919711;-73
2021/06/02 00:33:31;;;;;;;15.73;10.97;;;;;;;;;;782593;177;920203;-73
2021/06/02 00:35:57;;;;;;;13.70;9.67;;;;;;;;;;782559;177;920009;-73
2021/06/02 00:38:23;;;;;;;10.90;9.63;;;;;;;;;;781519;177;1002308;-73
2021/06/02 00:40:49;;;;;;;18.93;9.60;;;;;;;;;;786220;179;919619;-73
2021/06/02 00:43:15;;;;;;;15.20;13.23;;;;;;;;;;780675;177;918816;-73
2021/06/02 00:45:40;;;;;;;11.03;9.53;;;;;;;;;;780883;177;919101;-72
2021/06/02 00:48:06;;;;;;;12.93;9.30;;;;;;;;;;778932;179;919121;-73
2021/06/02 00:50:32;;;;;;;16.03;10.43;;;;;;;;;;782542;179;919535;-73
2021/06/02 00:52:58;;;;;;;12.67;10.83;;;;;;;;;;780725;177;919803;-74
2021/06/02 00:55:24;;;;;;;11.70;9.57;;;;;;;;;;785816;177;920420;-73
2021/06/02 00:57:50;;;;;;;14.13;11.53;;;;;;;;;;779853;177;919256;-73
2021/06/02 01:00:16;;;;;;;12.17;9.47;;;;;;;;;;780041;177;919356;-73
2021/06/02 01:02:42;;;;;;;14.53;9.80;;;;;;;;;;781400;177;919620;-72
2021/06/02 01:05:08;;;;;;;16.60;10.17;;;;;;;;;;779544;176;919084;-73
2021/06/02 01:07:34;;;;;;;14.90;10.20;;;;;;;;;;781996;177;918965;-73
2021/06/02 01:10:00;;;;;;;12.70;10.00;;;;;;;;;;786307;178;887591;-73
2021/06/02 01:12:26;;;;;;;12.37;10.00;;;;;;;;;;787478;176;918703;-74
2021/06/02 01:14:52;;;;;;;12.90;9.30;;;;;;;;;;782669;178;925962;-73
2021/06/02 01:17:17;;;;;;;13.00;9.07;;;;;;;;;;779009;179;1020968;-73
2021/06/02 01:19:43;;;;;;;13.37;10.30;;;;;;;;;;787212;178;919349;-73
2021/06/02 01:22:09;;;;;;;10.27;8.20;;;;;;;;;;781128;178;919186;-73
2021/06/02 01:24:35;;;;;;;11.73;9.30;;;;;;;;;;781883;177;919389;-74
2021/06/02 01:27:01;;;;;;;10.90;9.07;;;;;;;;;;788006;177;917249;-73
2021/06/02 01:29:27;;;;;;;15.20;9.13;;;;;;;;;;779926;177;919357;-73
2021/06/02 01:31:55;;;;;;;13.50;9.30;;;;;;;;;;781467;177;918821;-72
2021/06/02 01:34:27;;;;;;;15.67;9.20;;;;;;;;;;782327;179;919396;-73
2021/06/02 01:36:58;;;;;;;11.73;8.23;;;;;;;;;;787042;177;915940;-74
2021/06/02 01:39:29;;;;;;;14.43;9.40;;;;;;;;;;786524;177;952526;-74
2021/06/02 01:41:57;;;;;;;13.07;9.00;;;;;;;;;;781006;179;920608;-73
2021/06/02 01:44:27;;;;;;;13.03;8.27;;;;;;;;;;781083;177;919052;-74
2021/06/02 01:47:10;;;;;;;14.27;8.80;;;;;;;;;;777199;179;919184;-74
2021/06/02 01:49:36;;;;;;;15.68;8.88;;;;;;;;;;767517;178;918548;-73
2021/06/02 01:52:08;;;;;;;12.80;7.40;;;;;;;;;;773955;179;929531;-74
2021/06/02 01:54:40;;;;;;;12.40;7.83;;;;;;;;;;774037;179;916408;-74
2021/06/02 01:57:11;;;;;;;15.50;8.67;;;;;;;;;;781281;177;915731;-74
2021/06/02 01:59:43;;;;;;;11.23;8.23;;;;;;;;;;781856;177;915670;-74
2021/06/02 02:02:10;;;;;;;11.98;8.48;;;;;;;;;;787631;177;920093;-74
2021/06/02 02:04:39;;;;;;;12.03;7.93;;;;;;;;;;778737;179;920140;-74
2021/06/02 02:07:23;;;;;;;10.82;7.80;;;;;;;;;;779760;177;921542;-75
2021/06/02 02:09:55;;;;;;;11.67;8.70;;;;;;;;;;768948;178;920937;-74
2021/06/02 02:12:26;;;;;;;11.73;7.83;;;;;;;;;;781873;176;919419;-74
2021/06/02 02:14:56;;;;;;;15.03;8.97;;;;;;;;;;781509;177;919956;-72
2021/06/02 02:17:22;;;;;;;11.03;8.73;;;;;;;;;;780680;177;915973;-73
2021/06/02 02:20:01;;;;;;;13.67;8.70;;;;;;;;;;784795;176;921457;-73
2021/06/02 02:22:30;;;;;;;13.13;8.80;;;;;;;;;;782187;178;917139;-73
2021/06/02 02:24:56;;;;;;;23.10;9.70;;;;;;;;;;777097;179;944509;-73
2021/06/02 02:27:22;;;;;;;18.40;8.33;;;;;;;;;;772566;179;921010;-73
2021/06/02 02:29:54;;;;;;;15.63;8.53;;;;;;;;;;780983;179;915356;-74
2021/06/02 02:32:22;;;;;;;12.55;8.68;;;;;;;;;;781741;178;921680;-74
2021/06/02 02:35:06;;;;;;;8.57;6.73;;;;;;;;;;781929;177;916503;-72
2021/06/02 02:37:35;;;;;;;11.60;7.57;;;;;;;;;;767370;179;915408;-73
2021/06/02 02:40:12;;;;;;;14.80;9.27;;;;;;;;;;772483;179;910867;-73
2021/06/02 02:42:38;;;;;;;13.02;9.20;;;;;;;;;;785222;178;926672;-73
2021/06/02 02:45:18;;;;;;;9.97;8.00;;;;;;;;;;781732;179;929998;-73
2021/06/02 02:47:48;;;;;;;16.20;9.40;;;;;;;;;;781659;176;916137;-73
2021/06/02 02:50:15;;;;;;;11.23;9.20;;;;;;;;;;780818;177;915441;-73
2021/06/02 02:52:44;;;;;;;13.50;9.03;;;;;;;;;;785727;177;915154;-73
2021/06/02 02:55:17;;;;;;;10.80;9.47;;;;;;;;;;786346;177;919481;-73
2021/06/02 02:57:45;;;;;;;14.50;8.60;;;;;;;;;;781885;178;917679;-74
2021/06/02 03:00:11;;;;;;;15.23;10.10;;;;;;;;;;779276;177;916957;-77
2021/06/02 03:02:41;;;;;;;12.50;9.40;;;;;;;;;;787993;179;916438;-77
2021/06/02 03:05:07;;;;;;;16.63;9.70;;;;;;;;;;785704;177;866025;-75
2021/06/02 03:07:33;;;;;;;13.77;10.43;;;;;;;;;;781190;177;918828;-75
2021/06/02 03:10:05;;;;;;;17.77;10.63;;;;;;;;;;780244;177;918149;-76
2021/06/02 03:12:33;;;;;;;27.93;10.37;;;;;;;;;;786473;179;918153;-73
2021/06/02 03:14:59;;;;;;;12.23;9.10;;;;;;;;;;780898;179;917752;-74
2021/06/02 03:17:26;;;;;;;16.00;9.10;;;;;;;;;;779799;177;919099;-74
2021/06/02 03:19:55;;;;;;;13.97;9.60;;;;;;;;;;780663;177;905507;-73
2021/06/02 03:22:22;;;;;;;13.37;10.40;;;;;;;;;;785778;177;915970;-75
2021/06/02 03:24:54;;;;;;;14.40;10.07;;;;;;;;;;778823;177;1021554;-75
2021/06/02 03:27:22;;;;;;;13.37;9.57;;;;;;;;;;780211;177;1020360;-74
2021/06/02 03:29:51;;;;;;;16.50;11.00;;;;;;;;;;782065;176;918863;-73
2021/06/02 03:32:32;;;;;;;10.80;8.83;;;;;;;;;;788162;179;919431;-74
2021/06/02 03:35:04;;;;;;;22.03;9.60;;;;;;;;;;783959;180;918741;-75
2021/06/02 03:37:32;;;;;;;12.90;8.80;;;;;;;;;;773140;179;879369;-75
2021/06/02 03:40:18;;;;;;;12.37;9.80;;;;;;;;;;780758;177;921228;-74
2021/06/02 03:42:47;;;;;;;13.27;10.33;;;;;;;;;;781830;176;919498;-74
2021/06/02 03:45:13;;;;;;;11.67;9.17;;;;;;;;;;781410;176;919334;-74
2021/06/02 03:47:43;;;;;;;13.37;8.53;;;;;;;;;;787026;178;919490;-74
2021/06/02 03:50:18;;;;;;;14.37;8.57;;;;;;;;;;780825;176;918968;-74
2021/06/02 03:52:46;;;;;;;10.60;8.47;;;;;;;;;;781371;179;918270;-74
2021/06/02 03:55:28;;;;;;;13.67;8.70;;;;;;;;;;779078;177;919169;-74
2021/06/02 03:58:00;;;;;;;11.67;8.17;;;;;;;;;;764361;179;920338;-72
2021/06/02 04:00:31;;;;;;;14.47;9.57;;;;;;;;;;776445;176;919020;-75
2021/06/02 04:03:05;;;;;;;12.77;8.37;;;;;;;;;;786982;177;918475;-73
2021/06/02 04:05:48;;;;;;;10.73;8.43;;;;;;;;;;785773;179;918742;-73
2021/06/02 04:08:16;;;;;;;12.47;9.00;;;;;;;;;;778865;179;918291;-75
2021/06/02 04:10:43;;;;;;;13.77;9.10;;;;;;;;;;783234;177;918799;-76
2021/06/02 04:13:12;;;;;;;12.73;10.00;;;;;;;;;;780683;179;919383;-77
2021/06/02 04:15:38;;;;;;;15.03;8.03;;;;;;;;;;782388;177;897529;-75
2021/06/02 04:18:04;;;;;;;10.37;8.20;;;;;;;;;;769772;179;918853;-74
2021/06/02 04:20:30;;;;;;;15.23;7.93;;;;;;;;;;786923;176;623765;-74
2021/06/02 04:22:56;;;;;;;12.03;8.10;;;;;;;;;;785122;179;871489;-74
2021/06/02 04:25:21;;;;;;;12.80;7.67;;;;;;;;;;789095;179;624748;-78
2021/06/02 04:27:47;;;;;;;11.03;7.63;;;;;;;;;;777283;179;729350;-74
2021/06/02 04:30:13;;;;;;;9.43;7.17;;;;;;;;;;783006;177;638990;-77
2021/06/02 04:32:39;;;;;;;9.10;7.33;;;;;;;;;;791426;176;617412;-73
2021/06/02 04:35:08;;;;;;;11.60;7.20;;;;;;;;;;785339;178;1014975;-74
2021/06/02 04:37:35;;;;;;;16.17;6.70;;;;;;;;;;779575;179;625019;-78
2021/06/02 04:40:01;;;;;;;11.63;7.00;;;;;;;;;;791046;177;624632;-76
2021/06/02 04:42:26;;;;;;;12.60;6.47;;;;;;;;;;789486;176;626254;-75
2021/06/02 04:44:52;;;;;;;8.98;6.22;;;;;;;;;;787368;176;819735;-82
2021/06/02 04:47:18;;;;;;;20.43;7.07;;;;;;;;;;783809;178;818291;-75
2021/06/02 04:49:49;;;;;;;8.88;6.85;;;;;;;;;;784483;178;920827;-77
2021/06/02 04:52:21;;;;;;;12.63;7.57;;;;;;;;;;771667;179;918993;-77
2021/06/02 04:54:52;;;;;;;14.23;7.60;;;;;;;;;;777726;177;918855;-83
2021/06/02 04:57:24;;;;;;;15.10;7.73;;;;;;;;;;784724;176;918665;-76
2021/06/02 04:59:51;;;;;;;10.03;6.97;;;;;;;;;;787656;176;918030;-77
2021/06/02 05:02:23;;;;;;;8.60;6.60;;;;;;;;;;781013;177;917986;-81
2021/06/02 05:05:04;;;;;;;12.03;6.40;;;;;;;;;;780456;176;919920;-77
2021/06/02 05:07:40;;;;;;;13.27;6.53;;;;;;;;;;781865;176;918683;-78
2021/06/02 05:10:26;;;;;;;9.63;6.00;;;;;;;;;;778951;177;1020459;-79
2021/06/02 05:12:55;;;;;;;12.20;6.43;;;;;;;;;;778170;177;822001;-77
2021/06/02 05:15:22;;;;;;;10.20;6.20;;;;;;;;;;781046;176;814472;-81
2021/06/02 05:17:51;;;;;;;10.40;5.80;;;;;;;;;;785057;177;812052;-82
2021/06/02 05:20:24;;;;;;;8.47;6.47;;;;;;;;;;782670;177;914710;-81
2021/06/02 05:23:02;;;;;;;10.07;6.23;;;;;;;;;;779434;178;1012678;-78
2021/06/02 05:25:33;;;;;;;7.80;5.50;;;;;;;;;;776929;179;918739;-76
2021/06/02 05:28:05;;;;;;;11.00;7.50;;;;;;;;;;779624;177;910011;-79
2021/06/02 05:30:32;;;;;;;12.03;5.50;;;;;;;;;;786415;177;919680;-77
2021/06/02 05:33:03;;;;;;;8.90;6.30;;;;;;;;;;780026;176;1021317;-77
2021/06/02 05:35:39;;;;;;;9.67;5.80;;;;;;;;;;782051;177;918837;-81
2021/06/02 05:38:05;;;;;;;9.17;6.00;;;;;;;;;;778988;179;940992;-82
2021/06/02 05:40:37;;;;;;;10.37;5.17;;;;;;;;;;776635;179;869129;-76
2021/06/02 05:43:19;;;;;;;7.57;5.60;;;;;;;;;;785327;179;853247;-76
2021/06/02 05:46:00;;;;;;;9.47;6.00;;;;;;;;;;774251;178;917537;-80
2021/06/02 05:48:26;;;;;;;10.70;5.80;;;;;;;;;;774687;179;900796;-79
2021/06/02 05:50:58;;;;;;;6.57;4.30;;;;;;;;;;765006;179;1050771;-79
2021/06/02 05:53:39;;;;;;;7.87;5.43;;;;;;;;;;783772;177;919363;-83
2021/06/02 05:56:11;;;;;;;8.87;6.20;;;;;;;;;;754461;182;919273;-78
2021/06/02 05:58:40;;;;;;;10.20;6.53;;;;;;;;;;754112;184;884535;-78
2021/06/02 06:01:12;;;;;;;8.77;6.43;;;;;;;;;;760746;184;816499;-78
2021/06/02 06:03:38;;;;;;;12.25;7.25;;;;;;;;;;747228;184;916262;-79
2021/06/02 06:06:19;;;;;;;11.37;7.43;;;;;;;;;;750338;183;923882;-79
2021/06/02 06:08:53;;;;;;;8.67;7.10;;;;;;;;;;723419;187;919117;-78
2021/06/02 06:11:28;;;;;;;12.50;7.47;;;;;;;;;;739088;184;918874;-78
2021/06/02 06:13:58;;;;;;;12.47;7.27;;;;;;;;;;737782;185;918078;-78
2021/06/02 06:16:27;;;;;;;14.77;8.07;;;;;;;;;;741578;187;924184;-79
2021/06/02 06:18:58;;;;;;;9.47;7.03;;;;;;;;;;752662;183;916224;-75
2021/06/02 06:21:28;;;;;;;10.00;6.97;;;;;;;;;;754315;181;920630;-75
2021/06/02 06:23:55;;;;;;;9.73;6.53;;;;;;;;;;753309;184;960309;-76
2021/06/02 06:26:22;;;;;;;10.40;7.20;;;;;;;;;;761037;181;919229;-79
2021/06/02 06:29:03;;;;;;;10.73;7.90;;;;;;;;;;754393;181;918773;-79
2021/06/02 06:31:29;;;;;;;9.87;7.13;;;;;;;;;;750989;182;942628;-80
2021/06/02 06:33:55;;;;;;;22.17;7.70;;;;;;;;;;755684;181;919341;-78
2021/06/02 06:36:21;;;;;;;11.77;6.93;;;;;;;;;;757716;184;928928;-81
2021/06/02 06:38:51;;;;;;;12.10;7.70;;;;;;;;;;753063;181;1123735;-78
2021/06/02 06:41:17;;;;;;;13.57;8.43;;;;;;;;;;754325;183;955724;-78
2021/06/02 06:43:42;;;;;;;15.05;8.02;;;;;;;;;;752512;181;915811;-78
2021/06/02 06:46:08;;;;;;;10.67;6.80;;;;;;;;;;756759;184;916601;-79
2021/06/02 06:48:34;;;;;;;12.60;7.83;;;;;;;;;;755006;184;911921;-78
2021/06/02 06:51:00;;;;;;;9.80;7.35;;;;;;;;;;754031;181;911050;-79
2021/06/02 06:53:26;;;;;;;9.53;6.90;;;;;;;;;;760159;181;634658;-79
2021/06/02 06:55:52;;;;;;;10.63;6.35;;;;;;;;;;753921;181;913462;-79
2021/06/02 06:58:18;;;;;;;10.73;7.17;;;;;;;;;;755383;182;841331;-81
2021/06/02 07:00:44;;;;;;;8.97;5.57;;;;;;;;;;759697;184;816854;-79
2021/06/02 07:03:09;;;;;;;9.50;5.83;;;;;;;;;;754296;185;881889;-80
2021/06/02 07:05:35;;;;;;;12.50;5.60;;;;;;;;;;755946;183;915254;-79
2021/06/02 07:08:01;;;;;;;7.50;5.43;;;;;;;;;;755465;183;908433;-80
2021/06/02 07:10:27;;;;;;;11.03;6.73;;;;;;;;;;760085;183;927977;-80
2021/06/02 07:12:53;;;;;;;6.97;4.73;;;;;;;;;;751508;185;915947;-80
2021/06/02 07:15:19;;;;;;;10.57;4.67;;;;;;;;;;748248;184;915308;-80
2021/06/02 07:17:45;;;;;;;9.47;6.10;;;;;;;;;;744661;185;1017678;-79
2021/06/02 07:20:11;;;;;;;7.63;5.53;;;;;;;;;;755352;184;916428;-80
2021/06/02 07:22:37;;;;;;;8.13;4.80;;;;;;;;;;755154;181;910269;-80
2021/06/02 07:25:03;;;;;;;11.77;4.90;;;;;;;;;;760950;184;647639;-81
2021/06/02 07:27:29;;;;;;;7.50;5.10;;;;;;;;;;758674;181;804315;-81
2021/06/02 07:29:55;;;;;;;10.53;4.90;;;;;;;;;;759782;184;727587;-80
2021/06/02 07:32:21;;;;;;;9.27;5.50;;;;;;;;;;753109;184;918608;-80
2021/06/02 07:34:46;;;;;;;9.30;5.00;;;;;;;;;;743624;187;918059;-80
2021/06/02 07:37:12;;;;;;;7.43;5.07;;;;;;;;;;757648;184;758571;-80
2021/06/02 07:39:38;;;;;;;9.07;4.17;;;;;;;;;;757311;184;630760;-79
2021/06/02 07:42:04;;;;;;;8.07;4.60;;;;;;;;;;760301;181;620103;-80
2021/06/02 07:44:30;;;;;;;9.10;5.03;;;;;;;;;;755807;184;668984;-80
2021/06/02 07:46:56;;;;;;;8.07;4.83;;;;;;;;;;757179;182;704566;-81
2021/06/02 07:49:22;;;;;;;9.47;4.97;;;;;;;;;;756609;185;627804;-80
2021/06/02 07:51:51;;;;;;;9.77;4.90;;;;;;;;;;753992;183;636203;-80
2021/06/02 07:54:13;;;;;;;6.77;4.97;;;;;;;;;;751061;183;789765;-80
2021/06/02 07:56:39;;;;;;;8.50;4.70;;;;;;;;;;755930;183;694385;-80
2021/06/02 07:59:05;;;;;;;9.70;5.00;;;;;;;;;;753726;184;627967;-80
2021/06/02 08:01:31;;;;;;;5.60;4.67;;;;;;;;;;757392;184;781670;-80
2021/06/02 08:03:57;;;;;;;8.37;4.17;;;;;;;;;;757146;184;628213;-81
2021/06/02 08:06:23;;;;;;;6.27;4.40;;;;;;;;;;762337;184;623089;-80
2021/06/02 08:08:48;;;;;;;10.20;4.43;;;;;;;;;;757619;182;635920;-81
2021/06/02 08:11:14;;;;;;;6.30;3.70;;;;;;;;;;757287;184;711146;-80
2021/06/02 08:13:40;;;;;;;4.80;4.00;;;;;;;;;;761629;184;635902;-80
2021/06/02 08:16:06;;;;;;;6.33;4.17;;;;;;;;;;761093;182;710314;-79
2021/06/02 08:18:32;;;;;;;9.13;4.03;;;;;;;;;;760247;183;653219;-80
2021/06/02 08:20:58;;;;;;;4.80;3.83;;;;;;;;;;762851;181;610469;-81
2021/06/02 08:23:23;;;;;;;6.60;3.77;;;;;;;;;;759955;183;641491;-80
2021/06/02 08:25:50;;;;;;;5.33;3.60;;;;;;;;;;760303;183;618728;-78
2021/06/02 08:28:15;;;;;;;5.47;3.87;;;;;;;;;;756710;183;823171;-81
2021/06/02 08:30:41;;;;;;;5.83;4.30;;;;;;;;;;754340;186;812997;-80
2021/06/02 08:33:08;;;;;;;5.93;3.27;;;;;;;;;;757959;184;625198;-80
2021/06/02 08:35:33;;;;;;;6.43;3.63;;;;;;;;;;756741;184;615655;-79
2021/06/02 08:37:58;;;;;;;8.03;4.63;;;;;;;;;;758932;182;795186;-73
2021/06/02 08:40:24;;;;;;;8.53;4.20;;;;;;;;;;718477;192;916296;-74
2021/06/02 08:42:50;;;;;;;11.93;3.77;;;;;;;;;;711404;195;921785;-77
2021/06/02 08:45:16;;;;;;;4.83;3.70;;;;;;;;;;717373;195;914829;-75
2021/06/02 08:47:42;;;;;;;6.03;3.70;;;;;;;;;;714665;195;868984;-74
2021/06/02 08:50:08;;;;;;;5.60;4.30;;;;;;;;;;711979;195;921867;-72
2021/06/02 08:52:34;;;;;;;6.37;3.80;;;;;;;;;;714674;195;911545;-73
2021/06/02 08:55:00;;;;;;;4.77;3.50;;;;;;;;;;716043;194;821394;-77
2021/06/02 08:57:25;;;;;;;3.80;3.20;;;;;;;;;;711685;195;922242;-74
2021/06/02 08:59:51;;;;;;;4.73;3.33;;;;;;;;;;708912;195;924565;-74
2021/06/02 09:02:17;;;;;;;10.50;3.67;;;;;;;;;;721044;195;845312;-75
2021/06/02 09:04:43;;;;;;;9.30;3.80;;;;;;;;;;709256;194;915057;-75
2021/06/02 09:07:09;;;;;;;4.40;3.13;;;;;;;;;;706124;195;914277;-75
2021/06/02 09:09:35;;;;;;;5.07;3.40;;;;;;;;;;714215;196;815901;-73
2021/06/02 09:12:02;;;;;;;6.13;3.77;;;;;;;;;;709642;195;919736;-73
2021/06/02 09:14:30;;;;;;;6.10;3.67;;;;;;;;;;712488;194;816351;-72
2021/06/02 09:16:57;;;;;;;10.23;3.53;;;;;;;;;;712763;195;920122;-75
2021/06/02 09:19:28;;;;;;;8.17;3.50;;;;;;;;;;712850;195;918920;-71
2021/06/02 09:21:54;;;;;;;6.90;3.80;;;;;;;;;;712872;195;919035;-72
2021/06/02 09:24:20;;;;;;;5.10;3.40;;;;;;;;;;712239;195;919323;-72
2021/06/02 09:26:46;;;;;;;4.73;4.23;;;;;;;;;;714145;195;919133;-69
2021/06/02 09:29:13;;;;;;;9.33;3.80;;;;;;;;;;708583;195;919047;-73
2021/06/02 09:31:41;;;;;;;6.17;4.30;;;;;;;;;;712817;195;919033;-73
2021/06/02 09:34:15;;;;;;;7.37;3.70;;;;;;;;;;711846;196;920219;-73
2021/06/02 09:36:41;;;;;;;10.77;4.50;;;;;;;;;;720580;194;919934;-73
2021/06/02 09:39:07;;;;;;;5.23;3.93;;;;;;;;;;709916;195;919155;-74
2021/06/02 09:41:32;;;;;;;10.13;3.77;;;;;;;;;;712605;194;919219;-73
2021/06/02 09:43:59;;;;;;;7.70;4.93;;;;;;;;;;719552;195;918470;-72
2021/06/02 09:46:24;;;;;;;4.43;3.53;;;;;;;;;;710394;195;970166;-74
2021/06/02 09:48:51;;;;;;;9.97;6.27;;;;;;;;;;713018;197;740565;-73
2021/06/02 09:51:22;;;;;;;4.97;3.50;;;;;;;;;;708889;196;918753;-72
2021/06/02 09:53:52;;;;;;;7.40;4.23;;;;;;;;;;711539;195;921271;-75
2021/06/02 09:56:18;;;;;;;5.43;3.87;;;;;;;;;;713904;195;864724;-71
2021/06/02 09:58:44;;;;;;;5.93;4.33;;;;;;;;;;706508;195;922513;-74
2021/06/02 10:01:10;;;;;;;5.53;3.40;;;;;;;;;;706256;197;919102;-71
2021/06/02 10:03:37;;;;;;;7.00;4.80;;;;;;;;;;710545;195;919001;-70
2021/06/02 10:06:01;;;;;;;5.73;2.90;;;;;;;;;;709488;195;919562;-72
2021/06/02 10:08:29;;;;;;;8.23;4.50;;;;;;;;;;710307;197;919432;-71
2021/06/02 10:10:55;;;;;;;4.43;2.97;;;;;;;;;;715117;195;919104;-70
2021/06/02 10:13:21;;;;;;;5.80;3.20;;;;;;;;;;708459;195;919056;-71
2021/06/02 10:15:48;;;;;;;7.07;3.70;;;;;;;;;;711811;195;918997;-72
2021/06/02 10:18:20;;;;;;;6.10;3.83;;;;;;;;;;711991;195;918015;-70
2021/06/02 10:20:51;;;;;;;4.70;3.12;;;;;;;;;;713892;195;918324;-72
2021/06/02 10:23:17;;;;;;;4.57;3.00;;;;;;;;;;708124;196;919421;-73
2021/06/02 10:25:43;;;;;;;5.60;3.97;;;;;;;;;;710475;195;921560;-71
2021/06/02 10:28:09;;;;;;;3.40;2.87;;;;;;;;;;715445;195;919182;-72
2021/06/02 10:30:35;;;;;;;4.87;3.30;;;;;;;;;;709712;195;918867;-72
2021/06/02 10:33:01;;;;;;;5.80;3.40;;;;;;;;;;702953;195;919384;-72
2021/06/02 10:35:27;;;;;;;4.50;3.13;;;;;;;;;;710305;195;918784;-73
2021/06/02 10:37:52;;;;;;;3.58;2.70;;;;;;;;;;721393;193;919459;-69
2021/06/02 10:40:19;;;;;;;10.13;3.70;;;;;;;;;;711252;196;919262;-71
2021/06/02 10:42:47;;;;;;;4.80;3.20;;;;;;;;;;709909;194;918693;-69
2021/06/02 10:45:18;;;;;;;4.33;3.50;;;;;;;;;;720800;195;919170;-70
2021/06/02 10:47:44;;;;;;;6.90;3.50;;;;;;;;;;713417;196;919463;-69
2021/06/02 10:50:31;;;;;;;4.90;2.90;;;;;;;;;;712031;194;919321;-70
2021/06/02 10:52:57;;;;;;;5.67;3.43;;;;;;;;;;707492;194;1123240;-71
2021/06/02 10:55:28;;;;;;;4.63;3.00;;;;;;;;;;715837;195;920198;-71
2021/06/02 10:58:13;;;;;;;4.83;2.77;;;;;;;;;;713348;195;919170;-70
2021/06/02 11:00:39;;;;;;;7.47;2.97;;;;;;;;;;710161;195;946053;-70
2021/06/02 11:03:22;;;;;;;8.17;3.10;;;;;;;;;;714025;195;919050;-72
2021/06/02 11:05:54;;;;;;;6.43;2.87;;;;;;;;;;717584;194;712385;-69
2021/06/02 11:08:20;;;;;;;4.43;2.77;;;;;;;;;;713619;194;918879;-71
2021/06/02 11:10:46;;;;;;;4.33;2.90;;;;;;;;;;714552;194;921681;-70
2021/06/02 11:13:11;;;;;;;6.82;2.50;;;;;;;;;;714679;196;918065;-70
2021/06/02 11:15:43;;;;;;;5.70;2.90;;;;;;;;;;710751;195;947868;-71
2021/06/02 11:18:24;;;;;;;4.30;2.50;;;;;;;;;;709851;195;919383;-72
2021/06/02 11:20:51;;;;;;;4.90;2.90;;;;;;;;;;713618;194;920136;-71
2021/06/02 11:23:16;;;;;;;5.43;3.40;;;;;;;;;;710174;195;919110;-71
2021/06/02 11:25:42;;;;;;;5.40;2.70;;;;;;;;;;717769;194;858591;-70
2021/06/02 11:28:09;;;;;;;4.30;2.30;;;;;;;;;;714861;194;952228;-70
2021/06/02 11:30:34;;;;;;;6.20;3.60;;;;;;;;;;710889;195;919014;-71
2021/06/02 11:33:10;;;;;;;4.93;3.10;;;;;;;;;;716081;195;918725;-71
2021/06/02 11:35:41;;;;;;;8.10;3.33;;;;;;;;;;712634;196;918510;-68
2021/06/02 11:38:07;;;;;;;9.17;3.73;;;;;;;;;;709527;195;917651;-69
2021/06/02 11:40:33;;;;;;;5.57;2.97;;;;;;;;;;711696;194;918502;-70
2021/06/02 11:42:59;;;;;;;5.47;2.90;;;;;;;;;;715744;195;917583;-70
2021/06/02 11:45:26;;;;;;;4.77;2.97;;;;;;;;;;707311;195;918929;-69
2021/06/02 11:47:52;;;;;;;5.45;2.92;;;;;;;;;;709946;195;919562;-70
2021/06/02 11:50:17;;;;;;;8.23;3.93;;;;;;;;;;714629;194;918474;-71
2021/06/02 11:52:43;;;;;;;5.87;3.75;;;;;;;;;;719004;192;1021800;-70
2021/06/02 11:55:09;;;;;;;6.27;3.27;;;;;;;;;;711027;195;919469;-70
2021/06/02 11:57:36;;;;;;;5.43;3.37;;;;;;;;;;709937;195;930346;-69
2021/06/02 12:00:01;;;;;;;6.23;3.90;;;;;;;;;;719020;195;918738;-68
2021/06/02 12:02:27;;;;;;;10.20;4.03;;;;;;;;;;712322;195;1021757;-69
2021/06/02 12:04:53;;;;;;;6.07;3.60;;;;;;;;;;710466;195;1020061;-68
2021/06/02 12:07:22;;;;;;;6.10;3.20;;;;;;;;;;712861;195;920196;-68
2021/06/02 12:09:48;;;;;;;6.60;3.30;;;;;;;;;;711062;195;919006;-69
2021/06/02 12:12:14;;;;;;;5.20;2.90;;;;;;;;;;711476;195;918686;-69
2021/06/02 12:14:40;;;;;;;5.17;3.60;;;;;;;;;;709819;195;919770;-68
2021/06/02 12:17:06;;;;;;;4.50;3.10;;;;;;;;;;714088;197;918797;-69
2021/06/02 12:19:32;;;;;;;4.97;2.70;;;;;;;;;;711938;195;921365;-69
2021/06/02 12:21:58;;;;;;;3.83;2.53;;;;;;;;;;713047;195;915052;-70
2021/06/02 12:24:26;;;;;;;4.20;3.03;;;;;;;;;;711794;195;915832;-69
2021/06/02 12:26:53;;;;;;;5.70;2.93;;;;;;;;;;711462;195;915981;-73
2021/06/02 12:29:16;;;;;;;4.30;2.90;;;;;;;;;;707893;195;912976;-67
2021/06/02 12:31:44;;;;;;;4.90;2.70;;;;;;;;;;710528;195;919143;-71
2021/06/02 12:34:09;;;;;;;4.57;2.50;;;;;;;;;;709156;195;919122;-68
2021/06/02 12:36:36;;;;;;;4.90;3.40;;;;;;;;;;707678;195;918934;-69
2021/06/02 12:39:01;;;;;;;5.77;4.10;;;;;;;;;;707831;196;918700;-69
2021/06/02 12:41:27;;;;;;;6.40;2.70;;;;;;;;;;715554;195;919673;-69
2021/06/02 12:43:53;;;;;;;4.90;3.30;;;;;;;;;;711072;194;919387;-70
2021/06/02 12:46:18;;;;;;;4.83;2.77;;;;;;;;;;711235;197;940605;-70
2021/06/02 12:48:44;;;;;;;5.67;3.13;;;;;;;;;;712152;195;918748;-67
2021/06/02 12:51:11;;;;;;;9.57;2.93;;;;;;;;;;713230;194;930473;-70
2021/06/02 12:53:37;;;;;;;4.53;2.53;;;;;;;;;;714034;195;678618;-69
2021/06/02 12:56:03;;;;;;;4.77;2.67;;;;;;;;;;716989;197;624034;-73
2021/06/02 12:58:32;;;;;;;4.23;2.40;;;;;;;;;;714908;196;628385;-70
2021/06/02 13:00:55;;;;;;;5.03;3.10;;;;;;;;;;716284;195;636190;-69
2021/06/02 13:03:20;;;;;;;4.37;2.27;;;;;;;;;;711590;194;919044;-69
2021/06/02 13:05:46;;;;;;;3.77;3.00;;;;;;;;;;710867;196;919542;-68
2021/06/02 13:08:12;;;;;;;8.10;3.43;;;;;;;;;;711273;195;919710;-72
2021/06/02 13:10:38;;;;;;;4.13;2.83;;;;;;;;;;713106;195;919172;-71
2021/06/02 13:13:04;;;;;;;4.07;2.70;;;;;;;;;;716604;196;919546;-71
2021/06/02 13:15:30;;;;;;;3.90;2.47;;;;;;;;;;708019;194;919613;-70
2021/06/02 13:17:55;;;;;;;7.10;2.70;;;;;;;;;;707963;195;918819;-69
2021/06/02 13:20:27;;;;;;;5.00;2.60;;;;;;;;;;718948;194;1020934;-70
2021/06/02 13:23:08;;;;;;;4.43;2.67;;;;;;;;;;716877;193;919734;-68
2021/06/02 13:25:34;;;;;;;3.50;2.60;;;;;;;;;;709887;195;919975;-70
2021/06/02 13:27:59;;;;;;;3.30;2.20;;;;;;;;;;709859;197;919534;-70
2021/06/02 13:30:25;;;;;;;12.27;4.03;;;;;;;;;;710373;195;918707;-71
2021/06/02 13:32:54;;;;;;;5.57;2.53;;;;;;;;;;713942;195;919311;-70
2021/06/02 13:35:20;;;;;;;4.47;3.03;;;;;;;;;;714163;195;920278;-70
2021/06/02 13:37:46;;;;;;;5.55;2.42;;;;;;;;;;711295;195;918538;-69
2021/06/02 13:40:12;;;;;;;5.87;2.60;;;;;;;;;;714936;195;919596;-70
2021/06/02 13:42:44;;;;;;;11.67;2.90;;;;;;;;;;705619;195;976191;-70
2021/06/02 13:45:10;;;;;;;12.13;3.37;;;;;;;;;;709189;195;896463;-69
2021/06/02 13:47:36;;;;;;;10.60;3.10;;;;;;;;;;699036;197;918914;-71
2021/06/02 13:50:08;;;;;;;3.70;2.93;;;;;;;;;;717902;194;919382;-69
2021/06/02 13:52:33;;;;;;;3.53;2.63;;;;;;;;;;710823;195;918616;-70
2021/06/02 13:54:59;;;;;;;3.87;2.67;;;;;;;;;;710697;195;918958;-70
2021/06/02 13:57:25;;;;;;;4.10;2.83;;;;;;;;;;714775;196;918139;-70
2021/06/02 13:59:52;;;;;;;4.27;2.53;;;;;;;;;;711608;195;917613;-70
2021/06/02 14:02:19;;;;;;;4.60;2.50;;;;;;;;;;713369;194;919701;-70
2021/06/02 14:04:44;;;;;;;4.30;2.93;;;;;;;;;;712337;195;726730;-72
2021/06/02 14:07:10;;;;;;;4.33;2.67;;;;;;;;;;716556;197;616902;-73
2021/06/02 14:09:36;;;;;;;5.13;2.67;;;;;;;;;;710654;197;919074;-69
2021/06/02 14:12:02;;;;;;;3.20;2.23;;;;;;;;;;711178;194;918054;-69
2021/06/02 14:14:28;;;;;;;6.70;2.83;;;;;;;;;;717477;194;920309;-72
2021/06/02 14:16:54;;;;;;;4.23;2.97;;;;;;;;;;709988;196;919284;-70
2021/06/02 14:19:20;;;;;;;6.23;2.70;;;;;;;;;;710163;195;919508;-70
2021/06/02 14:21:47;;;;;;;12.23;3.00;;;;;;;;;;716464;194;918868;-70
2021/06/02 14:24:11;;;;;;;4.27;2.80;;;;;;;;;;712454;195;918018;-70
2021/06/02 14:26:37;;;;;;;5.27;2.83;;;;;;;;;;711253;195;917410;-68